• Join FlightAware (Why Join?)
  • Login
  • US Flag 
10:12AM EDT


 

Airport Tracker/Info


-or-


 

Live Flight TrackerFlight Track Log ✈ AMF1324 ✈ 26-Mar-2014 ✈ KBUF - KBGM

Flight Track Log - Related Links

Times and Time Zones

All times are in EDT time to prevent confusion due to time zone crossing. See the AMF1324 flight status page for this flight to view local times or setup timezone preferences in your user account.

Time Position Orientation Groundspeed Altitude Reporting Facility
EDT Latitude Longitude Course Direction KTS MPH feet Rate Location/Type
06:47AM 42.9333 -78.7333 270° West 157 181 1,700  Level Buffalo TRACON
06:47AM 42.9333 -78.7500 270° West 158 182 2,000 3,000 Climbing Buffalo TRACON
06:48AM 42.8833 -78.7333 166° South 199 229 5,000 2,400 Climbing Buffalo TRACON
06:49AM 42.8833 -78.6500 90° East 219 252 6,900 1,680 Climbing Buffalo TRACON
06:50AM 42.8844 -78.5769 89° East 239 275 8,200 1,800 Climbing Cleveland Center
06:51AM 42.8808 -78.4914 93° East 245 282 10,300 2,100 Climbing Cleveland Center
06:52AM 42.8761 -78.4086 94° East 223 257 12,600 1,320 Climbing Cleveland Center
06:53AM 42.8700 -78.3217 95° East 234 269 13,100 240 Climbing Cleveland Center
06:54AM 42.8622 -78.2194 96° East 267 307 13,100  Level Cleveland Center
06:55AM 42.8486 -78.1169 100° East 276 318 13,100  Level Cleveland Center
06:56AM 42.8081 -77.9997 115° Southeast 284 327 13,100  Level Cleveland Center
06:57AM 42.7739 -77.9003 115° Southeast 289 333 13,100 -60 Level Cleveland Center
06:58AM 42.7397 -77.8039 116° Southeast 285 328 13,000 -60 Descending Cleveland Center
06:59AM 42.7050 -77.7061 116° Southeast 285 328 13,000  Level Cleveland Center
07:00AM 42.6733 -77.6161 116° Southeast 285 328 13,000  Level Cleveland Center
07:01AM 42.6428 -77.5208 114° Southeast 279 321 13,000  Level Cleveland Center
07:02AM 42.6056 -77.4108 115° Southeast 282 325 13,000  Level Cleveland Center
07:03AM 42.5733 -77.3119 114° Southeast 283 326 13,000 -240 Level Cleveland Center
07:04AM 42.5425 -77.2147 113° Southeast 283 326 12,600 -720 Descending Cleveland Center
07:05AM 42.5125 -77.1131 112° Southeast 287 330 11,600 -840 Descending Cleveland Center
07:06AM 42.4794 -77.0150 115° Southeast 288 331 10,900 -840 Descending Cleveland Center
07:07AM 42.4444 -76.9214 117° Southeast 283 326 10,000 -900 Descending Cleveland Center
07:08AM 42.3981 -76.8108 120° Southeast 282 325 9,100 -600 Descending Cleveland Center
07:09AM 42.3761 -76.7606 121° Southeast 281 323 9,100  Level New York Center
07:10AM 42.3467 -76.6819 117° Southeast 276 318 9,100 60 Level New York Center
07:10AM 42.3361 -76.6303 105° East 264 304 9,200 60 Climbing Cleveland Center
07:11AM 42.3022 -76.5408 117° Southeast 267 307 9,200 -60 Level Cleveland Center
07:12AM 42.2642 -76.4581 122° Southeast 266 306 9,100 -300 Descending Cleveland Center
07:13AM 42.2244 -76.3722 122° Southeast 262 302 8,700 -1,080 Descending Cleveland Center
07:14AM 42.1847 -76.2881 122° Southeast 262 302 7,000 -1,620 Descending Cleveland Center
07:15AM 42.1458 -76.2078 123° Southeast 262 302 5,400 -960 Descending Cleveland Center
07:16AM 42.1011 -76.1169 124° Southeast 254 292 5,100 -600 Descending Cleveland Center
07:18AM 42.1067 -76.0289 85° East 197 227 4,000 -840 Descending New York Center
07:19AM 42.1356 -75.9864 47° Northeast 155 178 3,200 -720 Descending New York Center
07:20AM 42.1644 -75.9494 43° Northeast 143 165 2,600 -540 Descending New York Center
07:21AM 42.1894 -75.9458 North 118 136 2,200 -420 Descending New York Center